Time;durP1;ratioP1;P1;durP2;ratioP2;P2;SDS_P1;SDS_P2;PMS_P1;PMS_P2;Temp;Humidity;BMP_temperature;BMP_pressure;BME280_temperature;BME280_humidity;BME280_pressure;Samples;Min_cycle;Max_cycle;Signal;HPM_P1;HPM_P2
2023/04/06 00:02:15;;;;;;;48.50;17.40;;;;;;;1.86;50.25;99352.37;68295;1282;1015321;-60
2023/04/06 00:05:18;;;;;;;45.50;16.90;;;;;;;1.74;50.29;99352.58;68292;1282;1015284;-61
2023/04/06 00:08:23;;;;;;;54.60;18.50;;;;;;;1.56;50.47;99353.89;68309;1282;1015820;-61
2023/04/06 00:11:25;;;;;;;49.40;18.60;;;;;;;1.45;50.78;99354.92;68300;1282;1015616;-60
2023/04/06 00:14:28;;;;;;;52.40;19.90;;;;;;;1.46;50.87;99357.34;68301;1282;1016298;-61
2023/04/06 00:17:30;;;;;;;54.70;20.60;;;;;;;1.51;50.79;99355.52;68313;1282;1015516;-61
2023/04/06 00:20:33;;;;;;;53.10;19.90;;;;;;;1.59;50.94;99353.68;68294;1282;1015658;-60
2023/04/06 00:23:35;;;;;;;62.60;22.70;;;;;;;1.63;50.83;99351.89;68305;1282;1016091;-60
2023/04/06 00:26:37;;;;;;;78.80;28.60;;;;;;;1.53;50.72;99349.11;68313;1282;1015774;-60
2023/04/06 00:29:40;;;;;;;102.20;35.60;;;;;;;1.36;50.93;99346.96;68304;1282;1015725;-61
2023/04/06 00:32:42;;;;;;;58.50;21.90;;;;;;;1.40;50.75;99346.05;68318;1282;1017308;-61
2023/04/06 00:35:44;;;;;;;69.50;25.40;;;;;;;1.27;50.78;99345.38;68299;1282;1015377;-60
2023/04/06 00:38:47;;;;;;;86.50;31.10;;;;;;;1.35;50.51;99343.02;68301;1282;1015222;-61
2023/04/06 00:41:49;;;;;;;80.90;28.10;;;;;;;1.22;50.84;99345.78;68305;1282;1015200;-61
2023/04/06 00:44:52;;;;;;;87.00;30.30;;;;;;;1.22;51.08;99337.36;68315;1282;1016097;-61
2023/04/06 00:47:54;;;;;;;65.00;25.50;;;;;;;1.23;51.04;99333.55;68314;1282;1015208;-60
2023/04/06 00:51:00;;;;;;;54.20;20.60;;;;;;;1.27;51.27;99329.54;68303;1282;1016106;-61
2023/04/06 00:54:02;;;;;;;55.70;19.70;;;;;;;1.39;51.15;99320.73;68332;1282;1015432;-61
2023/04/06 00:57:04;;;;;;;62.00;23.60;;;;;;;1.54;50.44;99322.88;68298;1282;1015168;-61
2023/04/06 01:00:07;;;;;;;61.50;23.00;;;;;;;1.52;50.48;99321.20;68306;1282;1015556;-61
2023/04/06 01:03:09;;;;;;;61.40;23.10;;;;;;;1.47;50.77;99320.61;68315;1282;1015373;-61
2023/04/06 01:06:12;;;;;;;56.10;21.90;;;;;;;1.39;50.99;99325.04;68321;1282;1016267;-61
2023/04/06 01:09:14;;;;;;;58.40;21.40;;;;;;;1.32;51.30;99321.70;68312;1282;1015394;-60
2023/04/06 01:12:17;;;;;;;55.60;21.30;;;;;;;1.37;51.32;99317.98;68311;1282;1015561;-61
2023/04/06 01:15:19;;;;;;;55.40;20.30;;;;;;;1.29;51.45;99315.34;68319;1282;1014744;-61
2023/04/06 01:18:22;;;;;;;;;;;;;;;1.30;51.26;99313.62;68332;1282;1015517;-61
2023/04/06 01:21:25;;;;;;;58.40;22.00;;;;;;;1.13;51.29;99312.34;66130;1282;5500004;-61
2023/04/06 01:24:27;;;;;;;;;;;;;;;1.12;51.79;99314.05;68332;1282;1015403;-61
2023/04/06 01:27:30;;;;;;;62.90;22.10;;;;;;;0.89;51.57;99312.49;68307;1282;1015313;-61
2023/04/06 01:30:33;;;;;;;63.50;21.20;;;;;;;0.78;51.67;99311.27;68307;1282;1015293;-60
2023/04/06 01:33:35;;;;;;;62.50;22.80;;;;;;;0.62;51.90;99309.57;68315;1282;1015819;-60
2023/04/06 01:36:37;;;;;;;50.20;19.70;;;;;;;0.65;52.02;99307.13;68323;1282;1015492;-60
2023/04/06 01:39:48;;;;;;;55.90;20.20;;;;;;;0.74;52.37;99301.52;68311;1282;1015492;-60
2023/04/06 01:42:51;;;;;;;58.40;21.80;;;;;;;0.88;52.53;99301.83;68314;1282;1015685;-60
2023/04/06 01:45:53;;;;;;;59.10;22.20;;;;;;;1.14;52.01;99303.00;68321;1282;1015885;-61
2023/04/06 01:48:55;;;;;;;62.60;22.20;;;;;;;1.15;51.63;99300.06;68315;1282;1016038;-60
2023/04/06 01:51:58;;;;;;;53.00;20.40;;;;;;;0.92;52.08;99300.73;68310;1282;1014806;-60
2023/04/06 01:55:00;;;;;;;57.00;20.50;;;;;;;0.75;52.50;99294.61;68318;1282;1015716;-60
2023/04/06 01:58:02;;;;;;;59.20;20.90;;;;;;;0.71;52.78;99291.75;68330;1282;1015691;-60
2023/04/06 02:01:05;;;;;;;58.00;21.10;;;;;;;0.81;53.19;99294.19;68326;1282;1016075;-61
2023/04/06 02:04:07;;;;;;;57.10;22.50;;;;;;;0.72;52.58;99295.00;68321;1282;1014753;-61
2023/04/06 02:07:10;;;;;;;49.70;19.20;;;;;;;0.58;52.35;99292.08;68316;1282;1015285;-60
2023/04/06 02:10:12;;;;;;;55.80;20.20;;;;;;;0.54;52.16;99293.67;68323;1282;1015276;-60
2023/04/06 02:13:15;;;;;;;67.10;23.70;;;;;;;0.56;52.42;99293.31;68314;1282;1015903;-60
2023/04/06 02:16:17;;;;;;;;;;;;;;;0.48;52.43;99290.66;68322;1282;1014666;-61
2023/04/06 02:19:20;;;;;;;81.90;28.90;;;;;;;0.46;52.67;99288.96;68323;1282;1016734;-60
2023/04/06 02:22:22;;;;;;;;;;;;;;;0.48;52.99;99287.90;68332;1282;1015984;-60
2023/04/06 02:25:25;;;;;;;60.30;18.40;;;;;;;0.43;53.27;99287.11;68319;1282;1015796;-61
2023/04/06 02:28:27;;;;;;;87.20;31.70;;;;;;;0.46;53.01;99288.27;68327;1282;1015375;-60
2023/04/06 02:31:29;;;;;;;85.40;31.20;;;;;;;0.42;52.95;99287.29;68313;1282;1016071;-60
2023/04/06 02:34:32;;;;;;;67.60;23.50;;;;;;;0.40;53.18;99284.23;68323;1282;1015840;-60
2023/04/06 02:37:34;;;;;;;66.10;24.30;;;;;;;0.37;53.08;99281.85;68311;1282;1016046;-60
2023/04/06 02:40:36;;;;;;;66.50;22.90;;;;;;;0.31;53.33;99284.15;68319;1282;1015564;-60
2023/04/06 02:43:39;;;;;;;54.20;19.90;;;;;;;0.38;53.44;99289.92;68311;1282;1015415;-60
2023/04/06 02:46:41;;;;;;;55.60;22.20;;;;;;;0.44;53.24;99290.02;68307;1282;1016534;-60
2023/04/06 02:49:44;;;;;;;49.40;19.50;;;;;;;0.51;52.80;99291.80;68315;1282;1016007;-61
2023/04/06 02:52:46;;;;;;;49.30;19.10;;;;;;;0.36;53.28;99294.58;68313;1282;1015886;-60
2023/04/06 02:55:48;;;;;;;47.90;19.40;;;;;;;0.29;53.46;99292.27;68329;1282;1015386;-60
2023/04/06 02:58:51;;;;;;;55.80;20.80;;;;;;;0.25;53.65;99297.48;68327;1282;1016032;-60
2023/04/06 03:01:54;;;;;;;48.20;20.10;;;;;;;0.36;53.85;99294.60;68316;1282;1015447;-60
2023/04/06 03:04:56;;;;;;;60.60;22.00;;;;;;;0.44;53.81;99290.02;68317;1282;1015743;-60
2023/04/06 03:07:59;;;;;;;62.30;24.50;;;;;;;0.48;53.50;99289.98;68318;1282;1015283;-60
2023/04/06 03:11:01;;;;;;;61.90;24.50;;;;;;;0.33;53.46;99287.91;68316;1282;1015445;-60
2023/04/06 03:14:03;;;;;;;54.90;21.90;;;;;;;0.02;53.66;99295.13;68316;1282;1015393;-60
2023/04/06 03:17:06;;;;;;;67.70;25.40;;;;;;;-0.10;53.88;99290.98;68310;1282;1015542;-60
2023/04/06 03:20:08;;;;;;;57.70;22.80;;;;;;;-0.18;54.06;99291.23;68312;1282;1015313;-60
2023/04/06 03:23:11;;;;;;;51.00;20.20;;;;;;;-0.14;54.01;99294.45;68320;1282;1015535;-61
2023/04/06 03:26:13;;;;;;;45.70;17.50;;;;;;;-0.32;54.26;99301.48;68308;1282;1015975;-60
2023/04/06 03:29:15;;;;;;;41.00;15.80;;;;;;;-0.40;54.42;99303.28;68317;1282;1015242;-60
2023/04/06 03:32:18;;;;;;;46.20;16.00;;;;;;;-0.32;54.51;99305.28;68319;1282;1015516;-60
2023/04/06 03:35:20;;;;;;;46.80;17.90;;;;;;;-0.40;54.92;99306.73;68319;1282;1015432;-60
2023/04/06 03:38:23;;;;;;;59.00;23.50;;;;;;;-0.30;54.62;99306.11;68322;1282;1015196;-60
2023/04/06 03:41:26;;;;;;;46.50;17.10;;;;;;;-0.16;54.32;99302.37;68320;1282;1015572;-60
2023/04/06 03:44:28;;;;;;;55.90;22.30;;;;;;;0.02;54.57;99298.05;68307;1282;1014788;-60
2023/04/06 03:47:31;;;;;;;43.60;18.10;;;;;;;0.17;54.74;99300.67;68323;1282;1015682;-60
2023/04/06 03:50:33;;;;;;;47.30;16.80;;;;;;;0.20;54.63;99300.63;68312;1282;1015853;-60
2023/04/06 03:53:36;;;;;;;44.90;15.90;;;;;;;0.14;54.97;99299.50;68304;1282;1015314;-60
2023/04/06 03:56:39;;;;;;;45.50;16.60;;;;;;;0.27;54.47;99306.91;68311;1282;1015598;-60
2023/04/06 03:59:41;;;;;;;;;;;;;;;0.44;54.71;99301.89;68326;1282;1015518;-60
2023/04/06 04:02:44;;;;;;;47.40;17.60;;;;;;;0.62;54.28;99298.05;68313;1282;1016213;-60
2023/04/06 04:05:46;;;;;;;52.10;15.60;;;;;;;0.80;54.32;99301.25;68319;1282;1015737;-60
2023/04/06 04:08:48;;;;;;;47.80;14.90;;;;;;;0.85;54.39;99294.80;68319;1282;1015546;-60
2023/04/06 04:11:51;;;;;;;39.70;14.30;;;;;;;1.05;53.94;99295.73;68307;1259;1015362;-60
2023/04/06 04:14:53;;;;;;;39.30;14.80;;;;;;;1.08;54.24;99290.70;68309;1282;1015260;-60
2023/04/06 04:17:55;;;;;;;38.20;16.00;;;;;;;1.15;54.35;99288.52;68311;1282;1015672;-61
2023/04/06 04:20:59;;;;;;;34.90;13.30;;;;;;;1.33;54.03;99291.52;68327;1282;1015557;-60
2023/04/06 04:24:01;;;;;;;36.20;13.80;;;;;;;1.53;54.07;99293.27;68299;1282;1015456;-60
2023/04/06 04:27:04;;;;;;;34.60;13.70;;;;;;;1.69;53.73;99285.41;68317;1282;1015630;-61
2023/04/06 04:30:07;;;;;;;46.50;18.50;;;;;;;1.76;53.60;99288.23;68331;1259;1015869;-60
2023/04/06 04:33:09;;;;;;;44.30;18.10;;;;;;;1.90;53.82;99291.25;68313;1282;1015907;-60
2023/04/06 04:36:12;;;;;;;42.40;17.20;;;;;;;1.97;53.84;99286.80;68308;1282;1015729;-60
2023/04/06 04:39:14;;;;;;;;;;;;;;;2.10;53.85;99294.32;68328;1282;1015420;-60
2023/04/06 04:42:16;;;;;;;42.70;15.40;;;;;;;2.34;53.72;99278.69;68307;1282;1017582;-60
2023/04/06 04:45:19;;;;;;;38.90;14.50;;;;;;;2.56;53.18;99281.32;68322;1259;1015269;-60
2023/04/06 04:48:21;;;;;;;35.90;14.40;;;;;;;2.60;53.30;99286.25;68307;1282;1016072;-60
2023/04/06 04:51:24;;;;;;;37.10;14.80;;;;;;;2.76;53.04;99286.61;68307;1282;1015793;-60
2023/04/06 04:54:26;;;;;;;62.10;25.10;;;;;;;2.85;52.91;99276.40;68339;1282;1015260;-60
2023/04/06 04:57:29;;;;;;;38.30;14.90;;;;;;;2.98;52.68;99271.44;68312;1282;1015407;-60
2023/04/06 05:00:31;;;;;;;39.30;14.60;;;;;;;3.09;52.75;99271.52;68315;1282;1015548;-60
2023/04/06 05:03:35;;;;;;;34.10;13.70;;;;;;;3.27;52.63;99270.58;68321;1282;1015614;-60
2023/04/06 05:06:37;;;;;;;38.50;14.70;;;;;;;3.41;52.38;99271.98;68326;1282;1015613;-60
2023/04/06 05:09:40;;;;;;;35.30;14.00;;;;;;;3.36;52.32;99268.98;68326;1282;1016149;-60
2023/04/06 05:12:42;;;;;;;35.50;14.40;;;;;;;3.31;52.95;99267.90;68312;1282;1016020;-60
2023/04/06 05:15:45;;;;;;;36.80;14.90;;;;;;;3.42;53.34;99267.30;68308;1282;1015740;-60
2023/04/06 05:18:47;;;;;;;37.00;14.20;;;;;;;3.57;52.73;99264.33;68313;1282;1015951;-60
2023/04/06 05:21:50;;;;;;;36.70;14.70;;;;;;;3.69;53.27;99265.75;68317;1282;1016164;-60
2023/04/06 05:24:52;;;;;;;39.00;14.70;;;;;;;3.74;52.73;99264.05;68323;1282;1016196;-60
2023/04/06 05:27:55;;;;;;;39.60;15.60;;;;;;;3.76;52.76;99266.61;68316;1282;1015444;-60
2023/04/06 05:30:57;;;;;;;39.50;15.60;;;;;;;3.87;52.69;99266.66;68315;1282;1015827;-60
2023/04/06 05:34:00;;;;;;;41.90;16.90;;;;;;;3.94;52.75;99269.61;68324;1282;1016236;-60
2023/04/06 05:37:02;;;;;;;41.90;17.00;;;;;;;4.05;52.74;99261.16;68326;1282;1016034;-60
2023/04/06 05:40:05;;;;;;;40.20;17.00;;;;;;;4.14;52.57;99264.89;68312;1282;1016010;-60
2023/04/06 05:43:07;;;;;;;43.40;17.90;;;;;;;4.34;52.60;99262.44;68318;1282;1015135;-60
2023/04/06 05:46:10;;;;;;;42.60;17.70;;;;;;;4.41;52.46;99260.67;68310;1282;1015853;-60
2023/04/06 05:49:13;;;;;;;41.30;17.40;;;;;;;4.41;52.34;99261.73;68327;1282;1015769;-60
2023/04/06 05:52:15;;;;;;;;;;;;;;;4.44;51.88;99260.06;68300;1282;1015835;-60
2023/04/06 05:55:18;;;;;;;42.20;17.90;;;;;;;4.41;51.42;99259.98;68301;1282;1015916;-60
2023/04/06 05:58:20;;;;;;;41.00;17.70;;;;;;;4.35;52.42;99264.31;68314;1282;1016160;-60
2023/04/06 06:01:23;;;;;;;38.40;15.70;;;;;;;4.45;52.23;99256.21;68326;1282;1015983;-60
2023/04/06 06:04:25;;;;;;;40.40;17.10;;;;;;;4.56;51.70;99255.04;68322;1282;1015276;-60
2023/04/06 06:07:28;;;;;;;39.80;16.00;;;;;;;4.60;51.88;99252.69;68308;1282;1015333;-60
2023/04/06 06:10:30;;;;;;;36.70;15.10;;;;;;;4.62;51.67;99250.02;68316;1282;1015303;-60
2023/04/06 06:13:33;;;;;;;37.10;14.00;;;;;;;4.63;52.02;99253.99;68311;1282;1015540;-60
2023/04/06 06:16:35;;;;;;;34.80;14.70;;;;;;;4.55;51.91;99244.69;68315;1282;1016077;-60
2023/04/06 06:19:37;;;;;;;33.20;13.60;;;;;;;4.50;51.96;99241.73;68315;1282;1015240;-60
2023/04/06 06:22:40;;;;;;;36.40;14.50;;;;;;;4.62;51.96;99238.42;68331;1282;1015802;-60
2023/04/06 06:25:43;;;;;;;34.30;13.50;;;;;;;4.65;51.81;99242.48;68321;1282;1016083;-60
2023/04/06 06:28:45;;;;;;;35.50;13.70;;;;;;;4.71;51.53;99238.34;68312;1282;1015203;-60
2023/04/06 06:31:48;;;;;;;36.60;14.20;;;;;;;4.76;51.40;99242.68;68321;1282;1015419;-60
2023/04/06 06:34:51;;;;;;;35.50;13.70;;;;;;;4.95;51.53;99238.80;68323;1282;1015573;-60
2023/04/06 06:37:53;;;;;;;35.90;14.00;;;;;;;5.08;51.07;99238.55;68314;1282;1014534;-60
2023/04/06 06:40:55;;;;;;;33.70;13.10;;;;;;;5.12;51.35;99237.05;68306;1282;1015506;-60
2023/04/06 06:43:58;;;;;;;31.30;10.40;;;;;;;5.21;51.26;99236.76;68332;1282;1016490;-60
2023/04/06 06:47:00;;;;;;;29.70;11.00;;;;;;;5.20;50.32;99233.66;68310;1282;1015424;-60
2023/04/06 06:50:03;;;;;;;32.90;12.10;;;;;;;5.27;50.34;99227.38;68299;1282;1016085;-60
2023/04/06 06:53:05;;;;;;;32.90;11.00;;;;;;;5.49;50.52;99230.46;68308;1282;1016138;-60
2023/04/06 06:56:08;;;;;;;34.10;12.00;;;;;;;5.54;49.72;99229.60;68330;1282;1015946;-60
2023/04/06 06:59:10;;;;;;;29.40;11.40;;;;;;;5.50;49.83;99229.03;68325;1282;1015758;-60
2023/04/06 07:02:12;;;;;;;30.10;11.70;;;;;;;5.59;50.13;99228.39;68330;1282;1015636;-60
2023/04/06 07:05:15;;;;;;;27.90;10.40;;;;;;;5.81;49.64;99229.55;68330;1282;1015801;-60
2023/04/06 07:08:17;;;;;;;28.70;11.00;;;;;;;5.79;49.23;99231.34;68311;1282;1015964;-59
2023/04/06 07:11:20;;;;;;;30.30;11.50;;;;;;;5.99;49.95;99221.31;68311;1282;1015693;-60
2023/04/06 07:14:23;;;;;;;29.70;10.20;;;;;;;6.09;49.03;99221.63;68304;1282;1015623;-60
2023/04/06 07:17:26;;;;;;;30.80;11.60;;;;;;;6.09;48.36;99223.89;68331;1282;1015549;-60
2023/04/06 07:20:28;;;;;;;29.90;11.10;;;;;;;6.23;47.86;99215.75;68315;1282;1016045;-60
2023/04/06 07:23:31;;;;;;;27.90;10.50;;;;;;;6.39;48.03;99219.83;68314;1282;1015877;-60
2023/04/06 07:26:33;;;;;;;28.40;10.00;;;;;;;6.48;48.33;99212.91;68330;1282;1016052;-60
2023/04/06 07:29:36;;;;;;;30.60;11.20;;;;;;;6.52;46.86;99216.73;68316;1282;1016000;-60
2023/04/06 07:32:38;;;;;;;28.40;9.90;;;;;;;6.73;46.92;99209.70;68312;1282;1015797;-60
2023/04/06 07:35:40;;;;;;;31.40;9.80;;;;;;;6.97;46.94;99208.93;68310;1282;1015746;-60
2023/04/06 07:38:43;;;;;;;29.00;10.30;;;;;;;7.13;46.53;99205.48;68315;1282;1015894;-60
2023/04/06 07:41:45;;;;;;;26.90;9.30;;;;;;;7.31;46.66;99201.79;68323;1282;1015858;-60
2023/04/06 07:44:47;;;;;;;24.70;8.80;;;;;;;7.49;46.49;99205.77;68303;1282;1016207;-60
2023/04/06 07:47:50;;;;;;;26.20;8.80;;;;;;;7.58;44.84;99199.80;68318;1282;1016155;-60
2023/04/06 07:50:52;;;;;;;;;;;;;;;7.59;44.94;99206.36;68322;1282;1016315;-60
2023/04/06 07:53:56;;;;;;;23.00;8.10;;;;;;;7.57;44.61;99209.05;68301;1282;1015591;-60
2023/04/06 07:56:58;;;;;;;25.70;8.10;;;;;;;7.58;44.40;99201.37;68324;1282;1015990;-60
2023/04/06 08:00:02;;;;;;;26.00;8.00;;;;;;;7.64;43.90;99200.43;68320;1282;1015287;-60
2023/04/06 08:03:04;;;;;;;21.20;6.50;;;;;;;7.68;43.33;99197.11;68312;1282;1016043;-59
2023/04/06 08:06:07;;;;;;;23.50;6.60;;;;;;;7.84;43.79;99183.55;68321;1282;1015405;-60
2023/04/06 08:09:09;;;;;;;18.50;5.10;;;;;;;7.90;42.02;99196.87;68314;1282;1015894;-60
2023/04/06 08:12:12;;;;;;;18.80;5.10;;;;;;;7.77;41.70;99192.70;68323;1282;1015194;-60
2023/04/06 08:15:14;;;;;;;19.70;5.30;;;;;;;7.75;42.18;99188.11;68313;1282;1015549;-60
2023/04/06 08:18:17;;;;;;;;;;;;;;;7.80;42.31;99186.51;68318;1282;1016073;-60
2023/04/06 08:21:19;;;;;;;18.00;4.70;;;;;;;7.82;42.09;99181.04;68316;1282;1017997;-60
2023/04/06 08:24:22;;;;;;;18.20;4.60;;;;;;;7.93;42.22;99177.56;68292;1259;1015962;-60
2023/04/06 08:27:24;;;;;;;19.40;5.20;;;;;;;7.99;41.51;99181.30;68312;1282;1015850;-60
2023/04/06 08:30:26;;;;;;;19.90;4.80;;;;;;;7.89;41.29;99176.19;68326;1282;1016115;-60
2023/04/06 08:33:29;;;;;;;18.90;5.10;;;;;;;7.73;41.78;99176.55;68304;1282;1015789;-60
2023/04/06 08:36:31;;;;;;;19.20;5.30;;;;;;;7.81;41.21;99177.59;68306;1282;1015644;-60
2023/04/06 08:39:34;;;;;;;17.50;4.80;;;;;;;7.76;41.59;99169.11;68309;1282;1015769;-60
2023/04/06 08:42:36;;;;;;;16.40;4.60;;;;;;;7.87;41.83;99184.62;68305;1282;1015561;-60
2023/04/06 08:45:39;;;;;;;20.10;5.40;;;;;;;7.93;41.43;99174.23;68322;1282;1016092;-60
2023/04/06 08:48:41;;;;;;;18.50;5.30;;;;;;;7.96;41.96;99177.41;68329;1282;1015656;-60
2023/04/06 08:51:44;;;;;;;17.40;5.00;;;;;;;8.08;42.37;99164.01;68317;1282;1016064;-60
2023/04/06 08:54:46;;;;;;;18.90;5.60;;;;;;;8.28;42.46;99166.77;68307;1282;1015834;-60
2023/04/06 08:57:48;;;;;;;20.30;5.70;;;;;;;8.53;41.65;99158.70;68330;1282;1015461;-60
2023/04/06 09:00:51;;;;;;;23.40;5.50;;;;;;;8.57;41.81;99153.79;68317;1282;1015927;-60
2023/04/06 09:03:53;;;;;;;17.90;5.20;;;;;;;8.70;42.32;99153.53;68317;1282;1015780;-60
2023/04/06 09:06:56;;;;;;;20.80;6.00;;;;;;;8.87;42.16;99142.73;68321;1282;1015614;-60
2023/04/06 09:09:58;;;;;;;18.00;5.40;;;;;;;8.79;41.53;99148.91;68314;1282;1015460;-60
2023/04/06 09:13:00;;;;;;;17.30;4.80;;;;;;;8.84;41.80;99145.52;68313;1282;1015825;-60
2023/04/06 09:16:03;;;;;;;20.00;5.30;;;;;;;8.73;42.44;99150.05;68320;1282;1015763;-60
2023/04/06 09:19:06;;;;;;;;;;;;;;;8.62;41.97;99165.23;68324;1282;1015965;-60
2023/04/06 09:22:08;;;;;;;17.60;5.00;;;;;;;8.31;42.02;99152.53;68322;1282;1016036;-60
2023/04/06 09:25:11;;;;;;;20.70;5.90;;;;;;;8.19;42.86;99145.23;68322;1282;1015300;-60
2023/04/06 09:28:13;;;;;;;;;;;;;;;8.28;42.83;99137.71;68311;1282;1014940;-60
2023/04/06 09:31:16;;;;;;;19.50;5.40;;;;;;;8.47;42.88;99135.94;68311;1282;1015395;-60
2023/04/06 09:34:18;;;;;;;18.90;5.70;;;;;;;8.52;42.07;99140.95;68306;1282;1015491;-60
2023/04/06 09:37:21;;;;;;;22.00;5.50;;;;;;;8.36;42.43;99144.80;68319;1282;1016301;-60
2023/04/06 09:40:24;;;;;;;18.20;5.20;;;;;;;8.20;42.33;99133.17;68304;1282;1015626;-60
2023/04/06 09:43:26;;;;;;;22.60;6.00;;;;;;;8.21;42.95;99129.83;68302;1282;1015448;-60
2023/04/06 09:46:29;;;;;;;22.30;6.60;;;;;;;8.22;43.03;99130.96;68308;1282;1015533;-60
2023/04/06 09:49:31;;;;;;;21.80;6.60;;;;;;;8.29;42.91;99132.92;68309;1282;1014492;-60
2023/04/06 09:52:34;;;;;;;21.50;6.20;;;;;;;8.27;42.83;99134.41;68317;1282;1015905;-60
2023/04/06 09:55:36;;;;;;;24.00;6.90;;;;;;;8.33;42.83;99134.30;68288;1282;1015674;-60
2023/04/06 09:58:39;;;;;;;22.50;6.90;;;;;;;8.40;43.55;99125.80;68318;1282;1015699;-60
2023/04/06 10:01:41;;;;;;;23.20;6.50;;;;;;;8.42;43.32;99127.95;68314;1282;1015667;-60
2023/04/06 10:04:43;;;;;;;20.90;6.50;;;;;;;8.32;43.66;99139.59;68321;1282;1015622;-60
2023/04/06 10:07:46;;;;;;;20.60;6.10;;;;;;;8.12;44.44;99131.59;68315;1282;1016152;-60
2023/04/06 10:10:48;;;;;;;21.20;6.50;;;;;;;7.88;45.59;99133.95;68324;1282;1016107;-60
2023/04/06 10:13:51;;;;;;;;;;;;;;;7.84;45.77;99129.06;68311;1282;1016177;-60
2023/04/06 10:16:53;;;;;;;21.60;6.60;;;;;;;7.92;46.48;99125.20;68321;1282;1015897;-60
2023/04/06 10:19:56;;;;;;;22.30;6.40;;;;;;;7.88;46.63;99122.79;68314;1282;1015859;-60
2023/04/06 10:22:58;;;;;;;20.60;6.20;;;;;;;7.91;46.72;99124.74;68312;1282;1016264;-60
2023/04/06 10:26:01;;;;;;;20.60;5.40;;;;;;;7.80;47.41;99129.57;68304;1282;1015949;-60
2023/04/06 10:29:03;;;;;;;;;;;;;;;7.83;47.41;99129.09;68317;1282;1015412;-60
2023/04/06 10:32:06;;;;;;;20.20;6.20;;;;;;;7.83;47.70;99125.27;68304;1282;1016007;-60
2023/04/06 10:35:08;;;;;;;20.60;5.70;;;;;;;7.85;48.11;99121.69;68300;1282;1015325;-60
2023/04/06 10:38:11;;;;;;;18.90;5.80;;;;;;;7.96;48.30;99116.66;68315;1282;1015662;-60
2023/04/06 10:41:13;;;;;;;20.50;6.20;;;;;;;8.00;48.04;99126.61;68313;1282;1014649;-60
2023/04/06 10:44:16;;;;;;;21.60;5.90;;;;;;;7.93;48.41;99119.75;68313;1282;1015863;-60
2023/04/06 10:47:18;;;;;;;21.80;6.50;;;;;;;7.91;48.98;99122.48;68311;1282;1015314;-60
2023/04/06 10:50:21;;;;;;;20.40;6.00;;;;;;;7.82;49.63;99118.72;68309;1282;1015973;-60
2023/04/06 10:53:23;;;;;;;20.80;6.70;;;;;;;7.75;49.71;99109.43;68317;1282;1015745;-60
2023/04/06 10:56:27;;;;;;;18.40;5.50;;;;;;;7.72;50.71;99108.88;68297;1282;1015458;-61
2023/04/06 10:59:30;;;;;;;22.60;6.50;;;;;;;7.64;51.92;99106.44;68310;1282;1016001;-60
2023/04/06 11:02:33;;;;;;;19.80;6.10;;;;;;;7.60;51.45;99114.61;68306;1282;1015424;-60
2023/04/06 11:05:35;;;;;;;;;;;;;;;7.57;51.48;99113.16;68319;1282;1015445;-60
2023/04/06 11:08:38;;;;;;;20.30;5.90;;;;;;;7.62;51.43;99104.61;68315;1282;1015380;-60
2023/04/06 11:11:42;;;;;;;20.90;6.60;;;;;;;7.69;51.81;99096.10;68296;1282;1015917;-60
2023/04/06 11:14:44;;;;;;;18.80;4.90;;;;;;;7.68;51.90;99091.83;68310;1282;1016120;-60
2023/04/06 11:17:46;;;;;;;17.80;5.20;;;;;;;7.51;53.08;99093.63;68307;1282;1015296;-60
2023/04/06 11:20:49;;;;;;;20.80;6.30;;;;;;;7.38;53.63;99086.16;68307;1282;1015783;-60
2023/04/06 11:23:52;;;;;;;21.90;6.20;;;;;;;7.35;54.00;99086.99;68319;1282;1016378;-60
2023/04/06 11:26:54;;;;;;;18.80;5.80;;;;;;;7.07;55.06;99080.00;68313;1282;1016225;-60
2023/04/06 11:29:57;;;;;;;19.90;6.40;;;;;;;6.95;55.99;99091.48;68310;1282;1016241;-60
2023/04/06 11:32:59;;;;;;;21.40;6.00;;;;;;;6.95;55.68;99081.91;68311;1282;1015939;-60
2023/04/06 11:36:01;;;;;;;20.30;5.50;;;;;;;6.94;56.75;99074.29;68286;1282;1015607;-60
2023/04/06 11:39:04;;;;;;;19.20;5.50;;;;;;;6.92;56.97;99070.02;68315;1282;1015490;-60
2023/04/06 11:42:06;;;;;;;20.60;6.10;;;;;;;7.04;56.21;99063.98;68304;1282;1016518;-60
2023/04/06 11:45:09;;;;;;;18.90;5.70;;;;;;;7.08;56.69;99067.64;68290;1282;1016067;-60
2023/04/06 11:48:11;;;;;;;20.00;5.90;;;;;;;6.99;58.01;99064.55;68311;1282;1015459;-60
2023/04/06 11:51:13;;;;;;;20.90;5.80;;;;;;;6.98;57.43;99063.55;68323;1282;1016098;-60
2023/04/06 11:54:16;;;;;;;21.70;6.60;;;;;;;6.94;57.38;99059.70;68300;1282;1015894;-60
2023/04/06 11:57:19;;;;;;;20.70;6.40;;;;;;;6.88;57.54;99061.34;68313;1282;1015833;-60
2023/04/06 12:00:22;;;;;;;21.20;6.10;;;;;;;6.77;58.74;99058.66;68333;1282;1016281;-60
2023/04/06 12:03:24;;;;;;;23.50;6.50;;;;;;;6.79;58.73;99053.19;68306;1282;1017068;-60
2023/04/06 12:06:27;;;;;;;21.50;6.90;;;;;;;6.90;58.27;99048.42;68304;1282;1015420;-60
2023/04/06 12:09:29;;;;;;;21.90;6.70;;;;;;;6.91;58.61;99059.68;68309;1282;1015312;-60
2023/04/06 12:12:31;;;;;;;22.50;6.40;;;;;;;6.80;58.62;99053.16;68309;1282;1015381;-60
2023/04/06 12:15:34;;;;;;;20.40;5.90;;;;;;;6.72;59.86;99050.38;68291;1282;1016180;-60
2023/04/06 12:18:36;;;;;;;19.80;6.10;;;;;;;6.65;60.92;99049.27;68326;1282;1015771;-60
2023/04/06 12:21:39;;;;;;;20.60;6.70;;;;;;;6.49;61.24;99051.83;68303;1282;1016030;-60
2023/04/06 12:24:41;;;;;;;21.90;7.10;;;;;;;6.38;62.23;99043.23;68313;1282;1016034;-60
2023/04/06 12:27:43;;;;;;;21.30;6.50;;;;;;;6.48;60.92;99040.89;68302;1282;1015688;-60
2023/04/06 12:30:46;;;;;;;21.80;6.70;;;;;;;6.53;61.89;99045.41;68312;1282;1015379;-60
2023/04/06 12:33:48;;;;;;;21.90;6.60;;;;;;;6.42;61.82;99038.55;68319;1282;1014806;-60
2023/04/06 12:36:51;;;;;;;22.50;6.40;;;;;;;6.34;63.34;99043.36;68301;1282;1015856;-60
2023/04/06 12:39:53;;;;;;;20.30;6.90;;;;;;;6.24;62.86;99045.85;68325;1282;1015520;-60
2023/04/06 12:42:56;;;;;;;22.10;7.00;;;;;;;6.29;63.12;99047.04;68300;1282;1015458;-60
2023/04/06 12:45:59;;;;;;;23.00;7.20;;;;;;;6.33;62.65;99034.05;68304;1282;1015697;-60
2023/04/06 12:49:03;;;;;;;19.10;6.70;;;;;;;6.34;63.74;99040.96;68313;1282;1015819;-61
2023/04/06 12:52:05;;;;;;;21.00;7.00;;;;;;;6.37;62.67;99032.17;68309;1282;1015381;-60
2023/04/06 12:55:07;;;;;;;23.70;7.60;;;;;;;6.34;63.64;99031.58;68318;1282;1015509;-61
2023/04/06 12:58:10;;;;;;;21.40;7.30;;;;;;;6.24;65.31;99024.34;68309;1282;1015365;-60
2023/04/06 13:01:13;;;;;;;20.90;7.70;;;;;;;6.23;65.42;99026.63;68303;1282;1015523;-60
2023/04/06 13:04:19;;;;;;;24.20;8.80;;;;;;;6.08;66.01;99035.92;68312;1282;1015535;-61
2023/04/06 13:07:21;;;;;;;22.80;8.80;;;;;;;6.06;66.21;99022.44;68308;1282;1016001;-61
2023/04/06 13:10:24;;;;;;;24.00;9.10;;;;;;;6.12;65.10;99021.34;68319;1282;1015832;-60
2023/04/06 13:13:26;;;;;;;;;;;;;;;6.18;65.35;99011.89;68305;1282;1015319;-60
2023/04/06 13:16:29;;;;;;;25.80;9.60;;;;;;;6.21;65.64;99011.09;68290;1282;1015191;-61
2023/04/06 13:19:32;;;;;;;21.80;8.30;;;;;;;6.18;65.26;99005.48;68295;1282;1015606;-61
2023/04/06 13:22:34;;;;;;;23.10;9.20;;;;;;;6.22;65.68;99000.97;65653;1282;5472222;-60
2023/04/06 13:25:36;;;;;;;24.70;9.80;;;;;;;6.28;65.29;99004.23;68318;1282;1015861;-60
2023/04/06 13:28:39;;;;;;;26.20;9.50;;;;;;;6.23;65.32;99009.06;68301;1282;1016069;-60
2023/04/06 13:31:42;;;;;;;23.40;9.70;;;;;;;6.17;66.41;98996.85;68303;1282;1015527;-60
2023/04/06 13:34:45;;;;;;;26.40;9.50;;;;;;;6.03;67.06;98996.00;68312;1282;1015204;-60
2023/04/06 13:37:48;;;;;;;;;;;;;;;5.96;67.34;98998.70;68309;1282;1016043;-60
2023/04/06 13:40:50;;;;;;;23.90;9.00;;;;;;;6.05;66.38;98989.98;68303;1282;1016043;-60
2023/04/06 13:43:53;;;;;;;22.80;8.80;;;;;;;6.13;66.55;98995.08;68289;1282;1015425;-60
2023/04/06 13:46:55;;;;;;;24.50;10.00;;;;;;;6.21;65.88;98996.00;68302;1282;1015941;-60
2023/04/06 13:49:57;;;;;;;24.90;10.40;;;;;;;6.21;66.84;98991.99;68297;1282;1016279;-60
2023/04/06 13:53:00;;;;;;;25.50;10.70;;;;;;;6.34;66.32;98988.33;68308;1282;1016019;-60
2023/04/06 13:56:02;;;;;;;24.70;9.30;;;;;;;6.37;66.80;98985.77;68301;1282;1015788;-60
2023/04/06 13:59:05;;;;;;;24.70;10.50;;;;;;;6.33;66.25;98995.15;68301;1282;1015276;-60